CheckWX is a tool to help pilots better visualize weather data.  It is not intended as a substitute for an official pre-flight weather briefing.

23:09:51 UTC

KJAC TAF
Jackson Hole Airport
Jackson, Wyoming, USA
KJAC 011724Z 0118/0218 21010KT P6SM VCSH SCT025 OVC040 FM020100 27010KT 4SM -SN OVC020 FM020400 36012KT P6SM VCSH SCT020 OVC040 FM020700 36010KT P6SM SCT020 BKN035 FM021000 36009KT P6SM VCSH SCT020 BKN035

Apr-1@
18:00 UTC

Apr-1 @ 18:00 UTC

Apr-2@
01:00 UTC

Apr-2 @ 01:00 UTC

TAF KJAC 011724Z 0118/0218 21010KT P6SM VCSH SCT025 OVC040
Wind
  • 210° at 10 KTS
Conditions
Area Showers
Cloud Levels
  • Scattered at 2,500' AGL
  • Overcast at 4,000' AGL

Apr-2@
01:00 UTC

Apr-2 @ 01:00 UTC

Apr-2@
04:00 UTC

Apr-2 @ 04:00 UTC

FM020100 27010KT 4SM -SN OVC020

From

From Standard forecast or significant change

Wind
  • 270° at 10 KTS
Conditions
Light Snow
Cloud Levels
  • Overcast at 2,000' AGL

Apr-2@
04:00 UTC

Apr-2 @ 04:00 UTC

Apr-2@
07:00 UTC

Apr-2 @ 07:00 UTC

FM020400 36012KT P6SM VCSH SCT020 OVC040

From

From Standard forecast or significant change

Wind
  • 360° at 12 KTS
Conditions
Area Showers
Cloud Levels
  • Scattered at 2,000' AGL
  • Overcast at 4,000' AGL

Apr-2@
07:00 UTC

Apr-2 @ 07:00 UTC

Apr-2@
10:00 UTC

Apr-2 @ 10:00 UTC

FM020700 36010KT P6SM SCT020 BKN035

From

From Standard forecast or significant change

Wind
  • 360° at 10 KTS
Cloud Levels
  • Scattered at 2,000' AGL
  • Broken at 3,500' AGL

Apr-2@
10:00 UTC

Apr-2 @ 10:00 UTC

Apr-2@
18:00 UTC

Apr-2 @ 18:00 UTC

FM021000 36009KT P6SM VCSH SCT020 BKN035

From

From Standard forecast or significant change

Wind
  • 360° at 9 KTS
Conditions
Area Showers
Cloud Levels
  • Scattered at 2,000' AGL
  • Broken at 3,500' AGL